createdAt,value
2019-01-19T00:00:01.881Z,-0.93
2019-01-19T00:05:01.204Z,-0.93
2019-01-19T00:15:01.740Z,-0.86
2019-01-19T00:20:02.007Z,-0.87
2019-01-19T00:25:01.284Z,-0.82
2019-01-19T00:30:01.581Z,-0.86
2019-01-19T00:35:01.918Z,-0.84
2019-01-19T00:40:01.219Z,-0.81
2019-01-19T00:45:01.514Z,-0.84
2019-01-19T00:50:01.805Z,-0.86
2019-01-19T00:55:01.109Z,-0.88
2019-01-19T01:00:01.430Z,-0.88
2019-01-19T01:05:01.748Z,-0.91
2019-01-19T01:10:02.008Z,-0.96
2019-01-19T01:15:01.266Z,-1
2019-01-19T01:20:01.587Z,-1.05
2019-01-19T01:25:01.862Z,-1.06
2019-01-19T01:30:01.128Z,-1.06
2019-01-19T01:35:01.533Z,-1.11
2019-01-19T01:40:01.929Z,-1.11
2019-01-19T01:45:01.243Z,-1.15
2019-01-19T01:50:01.524Z,-1.16
2019-01-19T01:55:01.870Z,-1.14
2019-01-19T02:00:01.192Z,-1.2
2019-01-19T02:05:01.479Z,-1.23
2019-01-19T02:10:01.891Z,-1.17
2019-01-19T02:15:01.261Z,-1.21
2019-01-19T02:20:01.581Z,-1.25
2019-01-19T02:25:01.927Z,-1.26
2019-01-19T02:30:01.256Z,-1.3
2019-01-19T02:35:01.623Z,-1.33
2019-01-19T02:40:01.997Z,-1.34
2019-01-19T02:45:01.222Z,-1.4
2019-01-19T02:50:01.652Z,-1.43
2019-01-19T02:55:02.018Z,-1.41
2019-01-19T03:00:01.317Z,-1.44
2019-01-19T03:05:01.624Z,-1.49
2019-01-19T03:10:01.932Z,-1.49
2019-01-19T03:15:01.695Z,-1.54
2019-01-19T03:20:02.063Z,-1.55
2019-01-19T03:25:01.468Z,-1.57
2019-01-19T03:30:01.804Z,-1.58
2019-01-19T03:35:01.195Z,-1.58
2019-01-19T03:40:01.112Z,-1.61
2019-01-19T03:45:01.393Z,-1.61
2019-01-19T03:50:01.687Z,-1.62
2019-01-19T03:55:01.967Z,-1.63
2019-01-19T04:00:01.583Z,-1.67
2019-01-19T04:05:01.856Z,-1.7
2019-01-19T04:10:01.132Z,-1.73
2019-01-19T04:15:01.712Z,-1.75
2019-01-19T04:20:01.963Z,-1.82
2019-01-19T04:25:01.260Z,-1.85
2019-01-19T04:30:01.570Z,-1.9
2019-01-19T04:35:01.944Z,-1.95
2019-01-19T04:40:01.239Z,-1.99
2019-01-19T04:45:01.534Z,-2.04
2019-01-19T04:50:01.843Z,-2.06
2019-01-19T04:55:01.174Z,-2.13
2019-01-19T05:00:01.440Z,-2.09
2019-01-19T05:05:01.703Z,-2.12
2019-01-19T05:10:01.932Z,-2.16
2019-01-19T05:15:01.339Z,-2.2
2019-01-19T05:20:01.630Z,-2.23
2019-01-19T05:25:01.931Z,-2.28
2019-01-19T05:30:01.368Z,-2.36
2019-01-19T05:35:01.755Z,-2.46
2019-01-19T05:40:01.756Z,-2.47
2019-01-19T05:45:02.028Z,-2.46
2019-01-19T05:50:01.343Z,-2.46
2019-01-19T05:55:01.600Z,-2.46
2019-01-19T06:00:01.885Z,-2.41
2019-01-19T06:05:01.249Z,-2.42
2019-01-19T06:10:01.534Z,-2.42
2019-01-19T06:15:01.823Z,-2.42
2019-01-19T06:20:01.115Z,-2.43
2019-01-19T06:25:01.390Z,-2.5
2019-01-19T06:30:01.662Z,-2.54
2019-01-19T06:35:01.923Z,-2.57
2019-01-19T06:40:01.179Z,-2.61
2019-01-19T06:45:01.559Z,-2.58
2019-01-19T06:50:01.853Z,-2.59
2019-01-19T06:55:01.137Z,-2.58
2019-01-19T07:00:01.420Z,-2.59
2019-01-19T07:05:01.766Z,-2.53
2019-01-19T07:10:02.051Z,-2.51
2019-01-19T07:15:01.260Z,-2.42
2019-01-19T07:20:01.544Z,-2.42
2019-01-19T07:25:01.895Z,-2.37
2019-01-19T07:30:01.149Z,-2.33
2019-01-19T07:35:01.458Z,-2.3
2019-01-19T07:40:01.746Z,-2.21
2019-01-19T07:45:02.071Z,-2.2
2019-01-19T07:50:01.320Z,-2.18
2019-01-19T07:55:01.637Z,-2.17
2019-01-19T08:00:01.905Z,-2.1
2019-01-19T08:05:01.217Z,-2.13
2019-01-19T08:10:01.505Z,-2.1
2019-01-19T08:15:01.787Z,-2.04
2019-01-19T08:20:02.040Z,-1.99
2019-01-19T08:25:01.303Z,-1.97
2019-01-19T08:30:01.547Z,-1.93
2019-01-19T08:35:01.832Z,-1.89
2019-01-19T08:40:01.130Z,-1.85
2019-01-19T08:45:01.396Z,-1.74
2019-01-19T08:50:01.714Z,-1.64
2019-01-19T08:55:01.981Z,-1.5
2019-01-19T09:00:01.237Z,-1.35
2019-01-19T09:05:01.536Z,-1.26
2019-01-19T09:10:01.788Z,-1.1
2019-01-19T09:15:02.058Z,-1.06
2019-01-19T09:20:01.305Z,-1.12
2019-01-19T09:25:01.591Z,-1.2
2019-01-19T09:30:01.924Z,-1.3
2019-01-19T09:35:01.196Z,-1.29
2019-01-19T09:40:01.528Z,-1.24
2019-01-19T09:45:01.832Z,-1.18
2019-01-19T09:50:01.360Z,-1
2019-01-19T09:55:01.646Z,-0.81
2019-01-19T10:00:01.926Z,-0.68
2019-01-19T10:05:01.203Z,-0.51
2019-01-19T10:10:01.620Z,-0.36
2019-01-19T10:15:01.966Z,-0.22
2019-01-19T10:20:01.257Z,0.05
2019-01-19T10:25:01.526Z,0.03
2019-01-19T10:30:01.806Z,0.09
2019-01-19T10:35:01.129Z,0.2
2019-01-19T10:40:01.501Z,0.22
2019-01-19T10:45:02.007Z,0.35
2019-01-19T10:50:01.286Z,0.54
2019-01-19T10:55:01.593Z,0.73
2019-01-19T11:00:01.883Z,0.8
2019-01-19T11:05:01.180Z,0.89
2019-01-19T11:10:01.437Z,0.97
2019-01-19T11:15:01.691Z,0.96
2019-01-19T11:20:01.984Z,0.91
2019-01-19T11:25:01.283Z,1.02
2019-01-19T11:30:01.628Z,1.12
2019-01-19T11:35:01.937Z,1.17
2019-01-19T11:40:01.219Z,1.42
2019-01-19T11:45:01.515Z,1.52
2019-01-19T11:50:01.905Z,1.42
2019-01-19T11:55:01.161Z,1.33
2019-01-19T12:00:01.500Z,1.49
2019-01-19T12:05:01.795Z,1.49
2019-01-19T12:10:02.030Z,1.67
2019-01-19T12:15:01.275Z,1.69
2019-01-19T12:20:01.599Z,1.73
2019-01-19T12:25:01.875Z,1.75
2019-01-19T12:30:01.127Z,1.78
2019-01-19T12:35:01.388Z,1.81
2019-01-19T12:40:01.683Z,1.92
2019-01-19T12:45:02.019Z,1.93
2019-01-19T12:50:01.272Z,2.11
2019-01-19T12:55:01.686Z,2.11
2019-01-19T13:00:01.992Z,2.21
2019-01-19T13:05:01.254Z,2.17
2019-01-19T13:10:01.528Z,2.14
2019-01-19T13:15:01.835Z,2.09
2019-01-19T13:20:01.237Z,2.07
2019-01-19T13:25:01.532Z,2.08
2019-01-19T13:30:01.806Z,2.05
2019-01-19T13:35:01.134Z,2.07
2019-01-19T13:40:01.452Z,2.02
2019-01-19T13:45:01.740Z,1.99
2019-01-19T13:50:02.042Z,2.05
2019-01-19T13:55:01.297Z,2.05
2019-01-19T14:00:01.680Z,2.05
2019-01-19T14:05:01.982Z,2.06
2019-01-19T14:10:01.198Z,2.02
2019-01-19T14:15:01.478Z,1.99
2019-01-19T14:20:01.796Z,1.92
2019-01-19T14:25:02.053Z,1.87
2019-01-19T14:30:01.307Z,1.84
2019-01-19T14:35:01.618Z,1.82
2019-01-19T14:40:01.952Z,1.83
2019-01-19T14:45:01.222Z,1.71
2019-01-19T14:50:01.508Z,1.75
2019-01-19T14:55:01.898Z,1.76
2019-01-19T15:00:01.536Z,1.68
2019-01-19T15:05:01.796Z,1.75
2019-01-19T15:10:01.101Z,1.77
2019-01-19T15:15:01.432Z,1.77
2019-01-19T15:20:01.727Z,1.67
2019-01-19T15:25:01.987Z,1.71
2019-01-19T15:30:01.224Z,1.64
2019-01-19T15:35:01.590Z,1.62
2019-01-19T15:40:01.886Z,1.52
2019-01-19T15:45:01.193Z,1.47
2019-01-19T15:50:01.590Z,1.31
2019-01-19T15:55:01.938Z,1.24
2019-01-19T16:00:01.196Z,1.09
2019-01-19T16:05:01.578Z,1.01
2019-01-19T16:10:01.932Z,0.73
2019-01-19T16:15:01.222Z,0.6
2019-01-19T16:20:01.606Z,0.49
2019-01-19T16:25:01.943Z,0.34
2019-01-19T16:30:01.220Z,0.21
2019-01-19T16:35:01.541Z,-0.11
2019-01-19T16:40:01.847Z,-0.41
2019-01-19T16:45:01.153Z,-0.64
2019-01-19T16:50:01.457Z,-0.42
2019-01-19T16:55:01.818Z,-0.16
2019-01-19T17:00:01.122Z,-0.16
2019-01-19T17:05:01.383Z,-0.36
2019-01-19T17:10:01.511Z,-0.25
2019-01-19T17:15:01.795Z,-0.12
2019-01-19T17:20:02.071Z,-0.05
2019-01-19T17:25:01.306Z,-0.06
2019-01-19T17:30:01.622Z,0.06
2019-01-19T17:35:01.937Z,0.16
2019-01-19T17:40:01.199Z,0.14
2019-01-19T17:45:01.489Z,0.19
2019-01-19T17:50:01.813Z,0.14
2019-01-19T17:55:01.135Z,0.13
2019-01-19T18:00:01.401Z,0.07
2019-01-19T18:05:01.710Z,0.05
2019-01-19T18:10:01.986Z,-0.03
2019-01-19T18:15:01.234Z,-0.08
2019-01-19T18:20:01.546Z,-0.2
2019-01-19T18:25:01.829Z,-0.26
2019-01-19T18:30:02.089Z,-0.35
2019-01-19T18:35:01.360Z,-0.42
2019-01-19T18:40:01.639Z,-0.47
2019-01-19T18:45:01.890Z,-0.58
2019-01-19T18:50:01.266Z,-0.59
2019-01-19T18:55:01.610Z,-0.62
2019-01-19T19:00:01.880Z,-0.66
2019-01-19T19:05:01.166Z,-0.66
2019-01-19T19:10:02.122Z,-0.72
2019-01-19T19:15:01.745Z,-0.72
2019-01-19T19:20:02.026Z,-0.75
2019-01-19T19:25:01.267Z,-0.77
2019-01-19T19:30:01.632Z,-0.8
2019-01-19T19:35:01.955Z,-0.81
2019-01-19T19:40:01.204Z,-0.83
2019-01-19T19:45:01.548Z,-0.85
2019-01-19T19:50:01.893Z,-0.86
2019-01-19T19:55:01.166Z,-0.87
2019-01-19T20:00:01.446Z,-0.9
2019-01-19T20:05:01.738Z,-0.95
2019-01-19T20:10:02.043Z,-1
2019-01-19T20:15:01.281Z,-1.04
2019-01-19T20:20:01.557Z,-1.11
2019-01-19T20:25:01.851Z,-1.17
2019-01-19T20:30:01.178Z,-1.26
2019-01-19T20:35:01.477Z,-1.33
2019-01-19T20:40:01.771Z,-1.35
2019-01-19T20:45:01.143Z,-1.43
2019-01-19T20:50:01.511Z,-1.46
2019-01-19T20:55:01.782Z,-1.54
2019-01-19T21:00:02.041Z,-1.57
2019-01-19T21:05:01.308Z,-1.65
2019-01-19T21:10:01.649Z,-1.75
2019-01-19T21:15:01.140Z,-1.79
2019-01-19T21:20:01.420Z,-1.83
2019-01-19T21:25:01.677Z,-1.85
2019-01-19T21:30:01.928Z,-1.88
2019-01-19T21:35:01.235Z,-1.87
2019-01-19T21:40:01.702Z,-1.93
2019-01-19T21:45:01.967Z,-1.97
2019-01-19T21:50:01.287Z,-1.98
2019-01-19T21:55:01.589Z,-2.02
2019-01-19T22:00:01.867Z,-2.05
2019-01-19T22:05:01.223Z,-2.08
2019-01-19T22:10:01.504Z,-2.1
2019-01-19T22:15:01.780Z,-2.19
2019-01-19T22:20:02.050Z,-2.2
2019-01-19T22:25:01.313Z,-2.27
2019-01-19T22:30:01.585Z,-2.33
2019-01-19T22:35:01.883Z,-2.32
2019-01-19T22:40:01.229Z,-2.33
2019-01-19T22:45:01.531Z,-2.37
2019-01-19T22:50:01.823Z,-2.42
2019-01-19T22:55:01.126Z,-2.66
2019-01-19T23:00:01.586Z,-2.9
2019-01-19T23:05:01.882Z,-3.15
2019-01-19T23:10:01.262Z,-3.31
2019-01-19T23:15:01.530Z,-3.51
2019-01-19T23:20:01.870Z,-3.64
2019-01-19T23:25:01.128Z,-3.71
2019-01-19T23:30:01.391Z,-3.85
2019-01-19T23:35:01.701Z,-3.94
2019-01-19T23:40:02.007Z,-3.97
2019-01-19T23:45:01.318Z,-4
2019-01-19T23:50:01.564Z,-4.05
2019-01-19T23:55:01.844Z,-4.06
